Time;durP1;ratioP1;P1;durP2;ratioP2;P2;SDS_P1;SDS_P2;PMS_P1;PMS_P2;Temp;Humidity;BMP_temperature;BMP_pressure;BME280_temperature;BME280_humidity;BME280_pressure;Samples;Min_cycle;Max_cycle;Signal;HPM_P1;HPM_P2
2023/10/11 00:00:56;;;;;;;18.67;8.35;;;;;;;;;;2073950;28;20038;-53
2023/10/11 00:01:58;;;;;;;25.88;9.15;;;;;;;;;;2073942;28;20049;-53
2023/10/11 00:02:59;;;;;;;20.88;7.60;;;;;;;;;;2073926;28;20040;-53
2023/10/11 00:04:03;;;;;;;20.30;7.93;;;;;;;;;;2073249;28;20068;-53
2023/10/11 00:05:06;;;;;;;23.85;8.82;;;;;;;;;;2073747;28;20041;-53
2023/10/11 00:06:11;;;;;;;17.80;8.07;;;;;;;;;;2073313;28;20046;-53
2023/10/11 00:07:12;;;;;;;21.08;8.77;;;;;;;;;;2073593;28;20034;-53
2023/10/11 00:08:13;;;;;;;25.50;8.80;;;;;;;;;;2073506;28;20046;-53
2023/10/11 00:09:16;;;;;;;32.75;9.20;;;;;;;;;;2073862;28;20034;-53
2023/10/11 00:10:19;;;;;;;23.55;8.05;;;;;;;;;;2073844;28;20085;-53
2023/10/11 00:11:27;;;;;;;19.83;8.50;;;;;;;;;;2073378;28;20050;-53
2023/10/11 00:12:29;;;;;;;24.77;8.02;;;;;;;;;;2073935;28;20045;-53
2023/10/11 00:13:35;;;;;;;20.20;8.18;;;;;;;;;;2073960;28;20393;-53
2023/10/11 00:14:39;;;;;;;18.08;8.35;;;;;;;;;;2073684;28;20046;-54
2023/10/11 00:15:40;;;;;;;21.95;8.32;;;;;;;;;;2073620;28;20065;-53
2023/10/11 00:16:43;;;;;;;22.13;8.30;;;;;;;;;;2074066;28;20052;-53
2023/10/11 00:17:46;;;;;;;23.17;8.55;;;;;;;;;;2073903;28;20041;-54
2023/10/11 00:18:49;;;;;;;22.60;8.88;;;;;;;;;;2073659;28;20049;-53
2023/10/11 00:19:50;;;;;;;24.52;8.48;;;;;;;;;;2073744;28;20061;-54
2023/10/11 00:20:52;;;;;;;25.40;9.13;;;;;;;;;;2073466;28;20038;-54
2023/10/11 00:21:53;;;;;;;27.50;8.40;;;;;;;;;;2073220;28;20042;-53
2023/10/11 00:22:54;;;;;;;20.63;8.32;;;;;;;;;;2075394;28;20068;-53
2023/10/11 00:23:55;;;;;;;23.17;8.48;;;;;;;;;;2076763;28;20033;-53
2023/10/11 00:24:56;;;;;;;20.25;8.15;;;;;;;;;;2076770;28;20363;-53
2023/10/11 00:26:01;;;;;;;19.38;8.10;;;;;;;;;;2076426;28;20493;-54
2023/10/11 00:27:02;;;;;;;20.02;8.18;;;;;;;;;;2076724;28;20053;-54
2023/10/11 00:28:04;;;;;;;22.88;9.27;;;;;;;;;;2076360;28;20049;-53
2023/10/11 00:29:05;;;;;;;23.60;8.70;;;;;;;;;;2076502;28;20049;-53
2023/10/11 00:30:06;;;;;;;21.67;8.82;;;;;;;;;;2075542;28;20037;-53
2023/10/11 00:31:13;;;;;;;19.77;8.15;;;;;;;;;;2075885;28;20062;-53
2023/10/11 00:32:14;;;;;;;23.85;9.02;;;;;;;;;;2076511;28;20034;-53
2023/10/11 00:33:15;;;;;;;26.63;8.50;;;;;;;;;;2075874;28;20502;-53
2023/10/11 00:34:16;;;;;;;22.55;8.23;;;;;;;;;;2075817;28;20073;-53
2023/10/11 00:35:20;;;;;;;26.33;8.27;;;;;;;;;;2076101;28;20050;-53
2023/10/11 00:36:24;;;;;;;21.75;9.35;;;;;;;;;;2075473;28;20501;-53
2023/10/11 00:37:25;;;;;;;24.42;8.48;;;;;;;;;;2075866;28;20038;-53
2023/10/11 00:38:28;;;;;;;23.63;8.15;;;;;;;;;;2075600;28;20041;-53
2023/10/11 00:39:32;;;;;;;21.05;8.70;;;;;;;;;;2076153;28;20046;-53
2023/10/11 00:40:33;;;;;;;15.07;6.97;;;;;;;;;;2076429;28;20049;-53
2023/10/11 00:41:39;;;;;;;17.48;8.35;;;;;;;;;;2074831;28;20050;-53
2023/10/11 00:42:41;;;;;;;20.95;9.07;;;;;;;;;;2076257;28;20041;-53
2023/10/11 00:43:54;;;;;;;21.80;8.35;;;;;;;;;;2076482;28;20052;-53
2023/10/11 00:44:55;;;;;;;22.77;8.35;;;;;;;;;;2076257;28;20053;-53
2023/10/11 00:45:56;;;;;;;21.25;8.55;;;;;;;;;;2076403;28;20046;-53
2023/10/11 00:46:58;;;;;;;21.60;8.32;;;;;;;;;;2076170;28;20045;-52
2023/10/11 00:47:59;;;;;;;18.38;8.55;;;;;;;;;;2075778;28;20030;-53
2023/10/11 00:49:12;;;;;;;20.30;8.23;;;;;;;;;;2067905;28;20125;-53
2023/10/11 00:50:14;;;;;;;22.42;8.90;;;;;;;;;;2068770;28;20050;-53
2023/10/11 00:51:15;;;;;;;20.27;8.68;;;;;;;;;;2059215;28;20050;-53
2023/10/11 00:52:16;;;;;;;24.38;8.85;;;;;;;;;;2060095;28;20054;-53
2023/10/11 00:53:18;;;;;;;24.50;8.68;;;;;;;;;;2074938;28;20050;-53
2023/10/11 00:54:21;;;;;;;21.67;8.70;;;;;;;;;;2076073;28;20041;-53
2023/10/11 00:55:23;;;;;;;22.35;8.52;;;;;;;;;;2067293;28;20053;-53
2023/10/11 00:56:26;;;;;;;17.75;7.93;;;;;;;;;;2060051;28;20422;-53
2023/10/11 00:57:27;;;;;;;25.23;8.93;;;;;;;;;;2076171;28;20033;-53
2023/10/11 00:58:28;;;;;;;25.65;8.43;;;;;;;;;;2076626;28;20037;-53
2023/10/11 00:59:29;;;;;;;26.23;8.65;;;;;;;;;;2075917;28;20050;-53
2023/10/11 01:00:35;;;;;;;19.35;7.45;;;;;;;;;;2075793;28;20045;-53
2023/10/11 01:01:37;;;;;;;17.30;8.23;;;;;;;;;;2068839;28;20030;-53
2023/10/11 01:02:38;;;;;;;17.60;7.05;;;;;;;;;;2075196;28;20045;-53
2023/10/11 01:03:41;;;;;;;19.67;6.90;;;;;;;;;;2075963;28;20069;-53
2023/10/11 01:04:41;;;;;;;21.90;8.13;;;;;;;;;;2076105;28;20052;-52
2023/10/11 01:05:44;;;;;;;22.63;8.00;;;;;;;;;;2075963;28;20049;-53
2023/10/11 01:06:48;;;;;;;20.90;8.48;;;;;;;;;;2075094;28;20433;-53
2023/10/11 01:07:54;;;;;;;22.05;8.55;;;;;;;;;;2075977;28;20040;-53
2023/10/11 01:08:54;;;;;;;17.42;7.95;;;;;;;;;;2076411;28;20042;-53
2023/10/11 01:09:56;;;;;;;20.45;8.80;;;;;;;;;;2076274;28;20080;-53
2023/10/11 01:10:56;;;;;;;24.38;8.88;;;;;;;;;;2074957;28;20041;-53
2023/10/11 01:11:57;;;;;;;20.55;7.95;;;;;;;;;;2075485;28;20038;-53
2023/10/11 01:12:58;;;;;;;20.25;7.30;;;;;;;;;;2075895;28;20394;-53
2023/10/11 01:13:59;;;;;;;23.02;9.25;;;;;;;;;;2076030;28;20033;-54
2023/10/11 01:15:00;;;;;;;25.50;9.32;;;;;;;;;;2076179;28;20041;-53
2023/10/11 01:16:06;;;;;;;20.67;7.68;;;;;;;;;;2075541;28;20050;-54
2023/10/11 01:17:07;;;;;;;23.73;8.70;;;;;;;;;;2076550;28;20037;-53
2023/10/11 01:18:08;;;;;;;21.35;9.27;;;;;;;;;;2076227;28;20042;-53
2023/10/11 01:19:13;;;;;;;20.02;8.93;;;;;;;;;;2075746;28;20052;-53
2023/10/11 01:20:13;;;;;;;21.85;8.20;;;;;;;;;;2076301;28;20497;-53
2023/10/11 01:21:14;;;;;;;17.63;7.97;;;;;;;;;;2075986;28;20038;-53
2023/10/11 01:22:15;;;;;;;23.50;8.30;;;;;;;;;;2075916;28;20049;-54
2023/10/11 01:23:16;;;;;;;21.33;8.18;;;;;;;;;;2075965;28;20042;-53
2023/10/11 01:24:17;;;;;;;22.88;9.23;;;;;;;;;;2076265;28;20045;-53
2023/10/11 01:25:20;;;;;;;24.98;9.10;;;;;;;;;;2076221;28;20057;-53
2023/10/11 01:26:21;;;;;;;19.33;8.60;;;;;;;;;;2075110;28;20054;-53
2023/10/11 01:27:30;;;;;;;22.00;8.60;;;;;;;;;;2067478;28;20042;-54
2023/10/11 01:28:30;;;;;;;20.17;7.22;;;;;;;;;;2075515;28;20058;-54
2023/10/11 01:29:31;;;;;;;22.85;8.60;;;;;;;;;;2075820;28;20037;-53
2023/10/11 01:30:32;;;;;;;24.67;8.38;;;;;;;;;;2074963;28;20505;-53
2023/10/11 01:31:34;;;;;;;20.20;8.65;;;;;;;;;;2076519;28;20038;-53
2023/10/11 01:32:37;;;;;;;19.10;8.02;;;;;;;;;;2076174;28;20057;-54
2023/10/11 01:33:41;;;;;;;21.38;8.90;;;;;;;;;;2075987;28;20422;-53
2023/10/11 01:34:44;;;;;;;18.63;7.82;;;;;;;;;;2073584;28;20046;-54
2023/10/11 01:35:48;;;;;;;19.58;8.40;;;;;;;;;;2075032;28;20037;-54
2023/10/11 01:36:49;;;;;;;24.60;8.85;;;;;;;;;;2073546;28;20045;-53
2023/10/11 01:37:54;;;;;;;19.02;7.70;;;;;;;;;;2065558;28;20039;-53
2023/10/11 01:39:00;;;;;;;22.75;8.48;;;;;;;;;;2074574;28;20129;-54
2023/10/11 01:40:05;;;;;;;18.48;8.65;;;;;;;;;;2074853;28;20037;-53
2023/10/11 01:41:06;;;;;;;21.38;8.48;;;;;;;;;;2074547;28;20054;-53
2023/10/11 01:42:06;;;;;;;21.30;8.90;;;;;;;;;;2074922;28;20034;-53
2023/10/11 01:43:07;;;;;;;19.65;7.90;;;;;;;;;;2074938;28;20068;-53
2023/10/11 01:44:08;;;;;;;22.50;8.77;;;;;;;;;;2074282;28;20050;-53
2023/10/11 01:45:09;;;;;;;23.52;8.20;;;;;;;;;;2073220;28;20116;-53
2023/10/11 01:46:09;;;;;;;21.35;9.45;;;;;;;;;;2073842;28;20131;-54
2023/10/11 01:47:10;;;;;;;23.33;8.40;;;;;;;;;;2066592;28;20034;-53
2023/10/11 01:48:14;;;;;;;22.02;8.98;;;;;;;;;;2066080;28;20177;-54
2023/10/11 01:49:15;;;;;;;26.33;8.57;;;;;;;;;;2074365;28;20486;-53
2023/10/11 01:50:16;;;;;;;22.48;8.63;;;;;;;;;;2074986;28;20053;-53
2023/10/11 01:51:21;;;;;;;17.38;7.05;;;;;;;;;;2073584;28;20042;-53
2023/10/11 01:52:25;;;;;;;24.13;9.00;;;;;;;;;;2066729;28;20045;-53
2023/10/11 01:53:27;;;;;;;23.80;8.73;;;;;;;;;;2073682;28;20049;-53
2023/10/11 01:54:27;;;;;;;22.48;8.30;;;;;;;;;;2074562;28;20042;-53
2023/10/11 01:55:28;;;;;;;21.05;9.00;;;;;;;;;;2073771;28;20426;-54
2023/10/11 01:56:30;;;;;;;30.50;9.00;;;;;;;;;;2066347;28;20042;-53
2023/10/11 01:57:31;;;;;;;24.20;8.60;;;;;;;;;;2066227;28;20065;-53
2023/10/11 01:58:37;;;;;;;20.98;8.25;;;;;;;;;;2065990;28;20081;-53
2023/10/11 01:59:38;;;;;;;23.38;8.68;;;;;;;;;;2066462;28;20046;-54
2023/10/11 02:00:39;;;;;;;23.27;8.35;;;;;;;;;;2057710;28;20430;-54
2023/10/11 02:01:40;;;;;;;21.17;8.27;;;;;;;;;;2066222;28;20038;-54
2023/10/11 02:02:55;;;;;;;21.10;9.35;;;;;;;;;;2074402;28;20053;-53
2023/10/11 02:03:58;;;;;;;21.02;8.88;;;;;;;;;;2074097;28;20034;-53
2023/10/11 02:04:59;;;;;;;27.63;9.05;;;;;;;;;;2065746;28;20104;-54
2023/10/11 02:06:04;;;;;;;21.33;8.07;;;;;;;;;;2073487;28;20164;-54
2023/10/11 02:07:05;;;;;;;23.20;8.15;;;;;;;;;;2073118;28;20038;-54
2023/10/11 02:08:06;;;;;;;23.17;7.70;;;;;;;;;;2065488;28;20043;-54
2023/10/11 02:09:09;;;;;;;23.98;9.07;;;;;;;;;;2073418;28;20050;-54
2023/10/11 02:10:13;;;;;;;21.00;8.40;;;;;;;;;;2074532;28;20050;-53
2023/10/11 02:11:15;;;;;;;20.67;8.18;;;;;;;;;;2074777;28;20038;-53
2023/10/11 02:12:17;;;;;;;23.70;8.07;;;;;;;;;;2074704;28;20069;-54
2023/10/11 02:13:18;;;;;;;19.67;8.77;;;;;;;;;;2073439;28;20049;-54
2023/10/11 02:14:19;;;;;;;25.42;8.32;;;;;;;;;;2066058;28;20042;-53
2023/10/11 02:15:28;;;;;;;24.80;9.13;;;;;;;;;;2065663;28;20054;-54
2023/10/11 02:16:30;;;;;;;24.98;8.48;;;;;;;;;;2074450;28;20053;-53
2023/10/11 02:17:33;;;;;;;20.98;8.70;;;;;;;;;;2082182;28;20041;-54
2023/10/11 02:18:34;;;;;;;22.55;8.07;;;;;;;;;;2073270;28;20046;-54
2023/10/11 02:19:34;;;;;;;22.95;8.43;;;;;;;;;;2073962;28;20470;-54
2023/10/11 02:20:43;;;;;;;23.80;7.95;;;;;;;;;;2074471;28;20041;-53
2023/10/11 02:21:44;;;;;;;16.30;7.97;;;;;;;;;;2074474;28;20370;-53
2023/10/11 02:22:44;;;;;;;22.77;8.57;;;;;;;;;;2073897;28;20079;-54
2023/10/11 02:23:46;;;;;;;19.92;7.75;;;;;;;;;;2073907;28;20034;-54
2023/10/11 02:24:46;;;;;;;22.95;7.88;;;;;;;;;;2073403;28;20394;-53
2023/10/11 02:25:48;;;;;;;19.42;8.02;;;;;;;;;;2074345;28;20045;-54
2023/10/11 02:26:51;;;;;;;26.95;7.72;;;;;;;;;;2074446;28;20048;-54
2023/10/11 02:27:53;;;;;;;25.50;7.93;;;;;;;;;;2073330;28;20041;-54
2023/10/11 02:28:54;;;;;;;20.10;7.47;;;;;;;;;;2065769;28;20038;-53
2023/10/11 02:29:54;;;;;;;22.92;7.88;;;;;;;;;;2073808;28;20046;-53
2023/10/11 02:30:56;;;;;;;20.92;7.13;;;;;;;;;;2073609;28;20034;-53
2023/10/11 02:32:02;;;;;;;17.77;6.63;;;;;;;;;;2073572;28;20046;-54
2023/10/11 02:33:04;;;;;;;16.83;7.70;;;;;;;;;;2074897;28;20057;-52
2023/10/11 02:34:12;;;;;;;26.75;7.63;;;;;;;;;;2074103;28;20048;-53
2023/10/11 02:35:13;;;;;;;20.00;7.60;;;;;;;;;;2074916;28;20030;-53
2023/10/11 02:36:20;;;;;;;17.70;7.00;;;;;;;;;;2074839;28;20046;-55
2023/10/11 02:37:22;;;;;;;15.93;7.18;;;;;;;;;;2075153;28;20053;-53
2023/10/11 02:38:23;;;;;;;16.58;7.47;;;;;;;;;;2075521;28;20034;-60
2023/10/11 02:39:34;;;;;;;17.75;7.57;;;;;;;;;;2074501;28;20042;-58
2023/10/11 02:40:37;;;;;;;17.73;7.57;;;;;;;;;;2068756;28;20046;-53
2023/10/11 02:41:38;;;;;;;22.42;7.43;;;;;;;;;;2067197;28;20041;-53
2023/10/11 02:42:43;;;;;;;26.48;7.80;;;;;;;;;;2073975;28;20064;-53
2023/10/11 02:43:49;;;;;;;22.80;7.70;;;;;;;;;;2074084;28;20026;-54
2023/10/11 02:44:50;;;;;;;19.83;7.40;;;;;;;;;;2074801;28;20485;-53
2023/10/11 02:45:51;;;;;;;21.73;7.38;;;;;;;;;;2072653;28;20088;-53
2023/10/11 02:46:53;;;;;;;22.48;7.20;;;;;;;;;;2073209;28;20041;-53
2023/10/11 02:47:59;;;;;;;15.02;6.43;;;;;;;;;;2073754;28;20037;-53
2023/10/11 02:49:07;;;;;;;25.95;7.68;;;;;;;;;;2072850;28;20466;-53
2023/10/11 02:50:11;;;;;;;23.70;7.75;;;;;;;;;;2074241;28;20049;-53
2023/10/11 02:51:15;;;;;;;19.95;7.28;;;;;;;;;;2074013;28;20054;-53
2023/10/11 02:52:18;;;;;;;23.85;7.10;;;;;;;;;;2073793;28;20052;-53
2023/10/11 02:53:22;;;;;;;21.85;7.13;;;;;;;;;;2074327;28;20037;-53
2023/10/11 02:56:03;;;;;;;16.90;6.82;;;;;;;;;;2053692;28;20046;-53
2023/10/11 02:57:06;;;;;;;21.45;6.78;;;;;;;;;;2074385;28;20029;-53
2023/10/11 02:58:07;;;;;;;22.20;7.95;;;;;;;;;;2074030;28;20493;-53
2023/10/11 02:59:08;;;;;;;21.40;7.10;;;;;;;;;;2073146;28;20050;-53
2023/10/11 03:00:21;;;;;;;26.33;7.35;;;;;;;;;;2073767;28;20037;-52
2023/10/11 03:01:31;;;;;;;23.13;6.97;;;;;;;;;;2073938;28;20046;-53
2023/10/11 03:02:38;;;;;;;17.00;6.50;;;;;;;;;;2065833;28;20057;-53
2023/10/11 03:03:42;;;;;;;20.42;7.22;;;;;;;;;;2065739;28;20042;-53
2023/10/11 03:04:43;;;;;;;17.73;6.50;;;;;;;;;;2065287;28;20067;-54
2023/10/11 03:05:45;;;;;;;20.05;7.18;;;;;;;;;;2073295;28;20049;-53
2023/10/11 03:06:49;;;;;;;29.27;7.15;;;;;;;;;;2072888;28;20050;-53
2023/10/11 03:07:50;;;;;;;21.48;7.25;;;;;;;;;;2066046;28;20037;-53
2023/10/11 03:08:53;;;;;;;23.10;6.93;;;;;;;;;;2073336;28;20057;-53
2023/10/11 03:09:54;;;;;;;19.42;6.43;;;;;;;;;;2073076;28;20042;-53
2023/10/11 03:10:56;;;;;;;15.95;6.30;;;;;;;;;;2073125;28;20045;-53
2023/10/11 03:11:57;;;;;;;19.88;6.80;;;;;;;;;;2073816;28;20029;-53
2023/10/11 03:12:57;;;;;;;16.40;6.85;;;;;;;;;;2072998;28;20038;-53
2023/10/11 03:14:00;;;;;;;20.38;7.38;;;;;;;;;;2073755;28;20037;-53
2023/10/11 03:15:08;;;;;;;21.05;6.53;;;;;;;;;;2072960;28;20414;-53
2023/10/11 03:16:13;;;;;;;17.70;7.32;;;;;;;;;;2073241;28;20049;-53
2023/10/11 03:17:15;;;;;;;21.92;6.30;;;;;;;;;;2074185;28;20049;-53
2023/10/11 03:18:16;;;;;;;22.05;7.70;;;;;;;;;;2074377;28;20046;-53
2023/10/11 03:19:17;;;;;;;18.35;6.50;;;;;;;;;;2073803;28;20050;-53
2023/10/11 03:20:32;;;;;;;20.63;7.00;;;;;;;;;;2074304;28;20121;-53
2023/10/11 03:21:35;;;;;;;18.42;6.18;;;;;;;;;;2074305;28;20041;-53
2023/10/11 03:22:36;;;;;;;21.63;7.60;;;;;;;;;;2074243;28;20034;-53
2023/10/11 03:23:43;;;;;;;18.05;6.00;;;;;;;;;;2074250;28;20025;-53
2023/10/11 03:24:48;;;;;;;20.08;7.25;;;;;;;;;;2074279;28;20033;-54
2023/10/11 03:25:49;;;;;;;22.20;7.20;;;;;;;;;;2074337;28;20029;-53
2023/10/11 03:26:51;;;;;;;13.18;6.53;;;;;;;;;;2074135;28;20390;-53
2023/10/11 03:27:52;;;;;;;20.95;7.00;;;;;;;;;;2074005;28;20054;-53
2023/10/11 03:29:05;;;;;;;24.75;7.55;;;;;;;;;;2073325;28;20468;-53
2023/10/11 03:30:13;;;;;;;18.83;6.28;;;;;;;;;;2073651;28;20038;-52
2023/10/11 03:31:14;;;;;;;17.83;6.70;;;;;;;;;;2073890;28;20049;-53
2023/10/11 03:32:15;;;;;;;25.33;7.18;;;;;;;;;;2074185;28;20037;-53
2023/10/11 03:33:19;;;;;;;15.68;5.95;;;;;;;;;;2074157;28;20057;-53
2023/10/11 03:34:20;;;;;;;16.02;6.05;;;;;;;;;;2074218;28;20034;-53
2023/10/11 03:35:25;;;;;;;18.35;6.25;;;;;;;;;;2074054;28;20505;-53
2023/10/11 03:36:43;;;;;;;17.90;6.18;;;;;;;;;;2073722;28;20041;-53
2023/10/11 03:37:58;;;;;;;19.58;6.82;;;;;;;;;;2073692;28;20037;-53
2023/10/11 03:39:08;;;;;;;21.10;6.47;;;;;;;;;;2073750;28;20504;-53
2023/10/11 03:40:27;;;;;;;17.95;7.00;;;;;;;;;;2074171;28;20413;-53
2023/10/11 03:41:28;;;;;;;17.23;6.80;;;;;;;;;;2073899;28;20053;-53
2023/10/11 03:43:54;;;;;;;15.88;6.97;;;;;;;;;;2074197;28;20466;-53
2023/10/11 03:44:58;;;;;;;23.13;7.65;;;;;;;;;;2074064;28;20036;-53
2023/10/11 03:46:01;;;;;;;22.20;6.90;;;;;;;;;;2074231;28;20398;-53
2023/10/11 03:47:07;;;;;;;23.42;6.40;;;;;;;;;;2074162;28;20477;-53
2023/10/11 03:48:09;;;;;;;19.92;6.78;;;;;;;;;;2074245;28;20038;-53
2023/10/11 03:49:53;;;;;;;17.88;6.60;;;;;;;;;;2074131;28;20033;-53
2023/10/11 03:50:34;;;;;;;16.00;6.78;;;;;;;;;;2065653;28;20049;-55
2023/10/11 03:51:35;;;;;;;19.50;7.22;;;;;;;;;;2072568;28;20079;-53
2023/10/11 03:52:40;;;;;;;19.02;6.50;;;;;;;;;;2073356;28;20398;-53
2023/10/11 03:53:40;;;;;;;19.77;7.22;;;;;;;;;;2073931;28;20029;-53
2023/10/11 03:54:42;;;;;;;21.33;7.05;;;;;;;;;;2073216;28;20501;-53
2023/10/11 03:55:46;;;;;;;17.30;6.90;;;;;;;;;;2072731;28;20375;-53
2023/10/11 03:56:53;;;;;;;16.88;7.10;;;;;;;;;;2073668;28;20494;-53
2023/10/11 03:57:54;;;;;;;19.25;6.80;;;;;;;;;;2073169;28;20148;-52
2023/10/11 03:58:56;;;;;;;19.40;6.78;;;;;;;;;;2073847;28;20625;-52
2023/10/11 03:59:59;;;;;;;17.42;5.50;;;;;;;;;;2073954;28;20370;-53
2023/10/11 04:02:19;;;;;;;20.42;7.10;;;;;;;;;;2074162;28;20046;-53
2023/10/11 04:03:21;;;;;;;19.70;7.65;;;;;;;;;;2073843;28;20033;-53
2023/10/11 04:04:22;;;;;;;18.23;6.22;;;;;;;;;;2073637;28;20041;-53
2023/10/11 04:05:28;;;;;;;16.60;6.13;;;;;;;;;;2073546;28;20057;-52
2023/10/11 04:06:29;;;;;;;14.77;5.88;;;;;;;;;;2074084;28;20041;-53
2023/10/11 04:07:31;;;;;;;18.10;7.43;;;;;;;;;;2074136;28;20041;-53
2023/10/11 04:08:32;;;;;;;16.38;6.93;;;;;;;;;;2073572;28;20041;-53
2023/10/11 04:09:37;;;;;;;17.75;6.50;;;;;;;;;;2073990;28;20528;-53
2023/10/11 04:10:46;;;;;;;18.42;5.78;;;;;;;;;;2073779;28;20496;-53
2023/10/11 04:11:55;;;;;;;16.38;6.82;;;;;;;;;;2073924;28;20057;-53
2023/10/11 04:12:56;;;;;;;18.42;6.55;;;;;;;;;;2073878;28;20045;-53
2023/10/11 04:13:57;;;;;;;16.55;5.78;;;;;;;;;;2073785;28;20478;-53
2023/10/11 04:15:00;;;;;;;18.77;6.13;;;;;;;;;;2073530;28;20042;-53
2023/10/11 04:16:00;;;;;;;19.13;5.93;;;;;;;;;;2073421;28;20056;-53
2023/10/11 04:17:03;;;;;;;14.68;5.72;;;;;;;;;;2073883;28;20068;-53
2023/10/11 04:18:15;;;;;;;19.50;6.68;;;;;;;;;;2073810;28;20044;-53
2023/10/11 04:19:21;;;;;;;19.33;6.47;;;;;;;;;;2073988;28;20038;-53
2023/10/11 04:20:31;;;;;;;20.08;6.32;;;;;;;;;;2073781;28;20049;-53
2023/10/11 04:21:54;;;;;;;22.15;6.55;;;;;;;;;;2074193;28;20045;-53
2023/10/11 04:23:10;;;;;;;17.17;5.53;;;;;;;;;;2073949;28;20030;-53
2023/10/11 04:24:13;;;;;;;17.17;5.70;;;;;;;;;;2073865;28;20041;-53
2023/10/11 04:25:16;;;;;;;19.77;5.50;;;;;;;;;;2073960;28;20042;-53
2023/10/11 04:26:23;;;;;;;14.40;6.28;;;;;;;;;;2073611;28;20046;-53
2023/10/11 04:27:45;;;;;;;15.50;5.90;;;;;;;;;;2073856;28;20041;-52
2023/10/11 04:28:45;;;;;;;15.32;5.25;;;;;;;;;;2073037;28;20046;-53
2023/10/11 04:29:47;;;;;;;17.80;5.60;;;;;;;;;;2073955;28;20494;-53
2023/10/11 04:30:51;;;;;;;18.38;6.18;;;;;;;;;;2073473;28;20045;-53
2023/10/11 04:32:14;;;;;;;15.93;5.72;;;;;;;;;;2073521;28;20041;-53
2023/10/11 04:33:20;;;;;;;18.85;5.40;;;;;;;;;;2073155;28;20053;-53
2023/10/11 04:34:23;;;;;;;17.02;5.40;;;;;;;;;;2073568;28;20485;-53
2023/10/11 04:35:25;;;;;;;22.67;6.93;;;;;;;;;;2073746;28;20042;-53
2023/10/11 04:36:28;;;;;;;18.05;6.18;;;;;;;;;;2073156;28;20038;-53
2023/10/11 04:37:33;;;;;;;20.98;6.18;;;;;;;;;;2073775;28;20033;-53
2023/10/11 04:38:35;;;;;;;13.68;5.53;;;;;;;;;;2073399;28;20049;-52
2023/10/11 04:39:49;;;;;;;16.08;5.55;;;;;;;;;;2073899;28;20359;-53
2023/10/11 04:40:51;;;;;;;16.02;5.63;;;;;;;;;;2073645;28;20042;-55
2023/10/11 04:41:52;;;;;;;19.00;6.38;;;;;;;;;;2073717;28;20034;-53
2023/10/11 04:43:05;;;;;;;15.23;5.47;;;;;;;;;;2073876;28;20057;-53
2023/10/11 04:44:13;;;;;;;19.08;5.72;;;;;;;;;;2073996;28;20034;-53
2023/10/11 04:45:21;;;;;;;21.13;5.88;;;;;;;;;;2073844;28;20034;-55
2023/10/11 04:46:24;;;;;;;15.55;5.45;;;;;;;;;;2073868;28;20049;-53
2023/10/11 04:47:24;;;;;;;18.58;6.72;;;;;;;;;;2073637;28;20034;-53
2023/10/11 04:48:29;;;;;;;15.80;5.05;;;;;;;;;;2073648;28;20061;-53
2023/10/11 04:49:30;;;;;;;17.85;5.50;;;;;;;;;;2073392;28;20057;-53
2023/10/11 04:50:31;;;;;;;18.05;5.30;;;;;;;;;;2073667;28;20050;-54
2023/10/11 04:51:39;;;;;;;20.80;6.22;;;;;;;;;;2073690;28;20528;-55
2023/10/11 04:52:46;;;;;;;11.60;5.30;;;;;;;;;;2073433;28;20049;-54
2023/10/11 04:54:54;;;;;;;18.55;6.28;;;;;;;;;;2073045;28;20026;-54
2023/10/11 04:56:51;;;;;;;12.90;4.90;;;;;;;;;;2073057;28;20120;-60
2023/10/11 04:57:21;;;;;;;15.80;5.28;;;;;;;;;;2073556;28;20033;-54
2023/10/11 04:58:39;;;;;;;13.55;5.20;;;;;;;;;;2073762;28;20033;-53
2023/10/11 04:59:40;;;;;;;16.42;5.25;;;;;;;;;;2074081;28;20046;-54
2023/10/11 05:00:44;;;;;;;15.30;5.32;;;;;;;;;;2073682;28;20120;-54
2023/10/11 05:02:57;;;;;;;17.25;5.47;;;;;;;;;;2073691;28;20050;-54
2023/10/11 05:03:59;;;;;;;16.33;5.47;;;;;;;;;;2076420;28;20033;-54
2023/10/11 05:05:00;;;;;;;21.33;6.65;;;;;;;;;;2073311;28;20406;-54
2023/10/11 05:06:02;;;;;;;13.02;4.47;;;;;;;;;;2073878;28;20033;-54
2023/10/11 05:07:09;;;;;;;16.83;5.78;;;;;;;;;;2073093;28;20037;-54
2023/10/11 05:08:50;;;;;;;14.38;5.68;;;;;;;;;;2073186;28;20034;-54
2023/10/11 05:09:52;;;;;;;13.63;5.05;;;;;;;;;;2074939;28;20501;-54
2023/10/11 05:10:55;;;;;;;16.75;5.35;;;;;;;;;;2075186;28;20030;-54
2023/10/11 05:12:08;;;;;;;13.18;5.30;;;;;;;;;;2075139;28;20390;-53
2023/10/11 05:13:13;;;;;;;20.05;5.13;;;;;;;;;;2075267;28;20034;-54
2023/10/11 05:14:29;;;;;;;14.45;5.32;;;;;;;;;;2075070;28;20033;-54
2023/10/11 05:15:34;;;;;;;16.92;4.93;;;;;;;;;;2074905;28;20398;-54
2023/10/11 05:16:37;;;;;;;17.33;5.88;;;;;;;;;;2075214;28;20505;-54
2023/10/11 05:17:41;;;;;;;16.55;5.40;;;;;;;;;;2075112;28;20034;-54
2023/10/11 05:18:42;;;;;;;17.98;5.57;;;;;;;;;;2075320;28;20026;-54
2023/10/11 05:19:45;;;;;;;20.13;5.60;;;;;;;;;;2074885;28;20034;-54
2023/10/11 05:20:57;;;;;;;17.35;5.47;;;;;;;;;;2075211;28;20034;-54
2023/10/11 05:21:59;;;;;;;15.57;5.20;;;;;;;;;;2074377;28;20053;-54
2023/10/11 05:23:05;;;;;;;16.02;5.50;;;;;;;;;;2074436;28;20038;-54
2023/10/11 05:24:33;;;;;;;13.18;5.05;;;;;;;;;;2075419;28;20037;-54
2023/10/11 05:27:36;;;;;;;17.88;5.63;;;;;;;;;;2049503;29;20055;-54
2023/10/11 05:28:58;;;;;;;16.73;5.43;;;;;;;;;;2074991;28;20454;-54
2023/10/11 05:32:23;;;;;;;16.80;5.63;;;;;;;;;;2074840;28;20508;-54
2023/10/11 05:36:14;;;;;;;18.55;5.55;;;;;;;;;;2049593;29;20166;-54
2023/10/11 05:51:48;;;;;;;;;;;;;;;;;;2075698;28;20029;-53
2023/10/11 05:52:48;;;;;;;21.48;6.82;;;;;;;;;;2074491;28;19909;-53
2023/10/11 05:53:49;;;;;;;14.27;5.10;;;;;;;;;;2074790;28;20078;-53
2023/10/11 05:54:50;;;;;;;17.95;5.40;;;;;;;;;;2074932;28;20032;-53
2023/10/11 05:55:51;;;;;;;15.15;5.32;;;;;;;;;;2074763;28;20049;-53
2023/10/11 05:56:52;;;;;;;14.23;5.40;;;;;;;;;;2075007;28;20367;-53
2023/10/11 05:57:53;;;;;;;18.60;5.72;;;;;;;;;;2074465;28;20054;-54
2023/10/11 05:58:53;;;;;;;18.27;6.22;;;;;;;;;;2075059;28;20117;-53
2023/10/11 05:59:54;;;;;;;16.77;5.15;;;;;;;;;;2074781;28;20030;-53
2023/10/11 06:00:55;;;;;;;15.73;5.20;;;;;;;;;;2074665;28;20096;-53
2023/10/11 06:01:56;;;;;;;17.48;5.60;;;;;;;;;;2074645;28;20057;-55
2023/10/11 06:02:57;;;;;;;12.75;4.85;;;;;;;;;;2074649;28;20048;-54
2023/10/11 06:04:03;;;;;;;19.20;5.57;;;;;;;;;;2074726;28;20497;-53
2023/10/11 06:05:10;;;;;;;16.13;5.50;;;;;;;;;;2074650;28;20054;-54
2023/10/11 06:06:23;;;;;;;17.88;4.95;;;;;;;;;;2074205;28;20041;-54
2023/10/11 06:07:23;;;;;;;19.13;5.25;;;;;;;;;;2074420;28;20053;-54
2023/10/11 06:08:24;;;;;;;18.08;4.82;;;;;;;;;;2074669;28;20037;-54
2023/10/11 06:09:30;;;;;;;17.85;5.18;;;;;;;;;;2074643;28;20052;-54
2023/10/11 06:10:42;;;;;;;14.38;4.85;;;;;;;;;;2074577;28;20049;-54
2023/10/11 06:11:48;;;;;;;17.15;5.75;;;;;;;;;;2074807;28;20042;-54
2023/10/11 06:12:48;;;;;;;22.83;5.78;;;;;;;;;;2074649;28;20034;-54
2023/10/11 06:13:52;;;;;;;19.13;4.90;;;;;;;;;;2074850;28;20030;-54
2023/10/11 06:14:53;;;;;;;19.30;5.68;;;;;;;;;;2074522;28;20026;-55
2023/10/11 06:16:00;;;;;;;19.73;5.75;;;;;;;;;;2074633;28;20065;-59
2023/10/11 06:17:05;;;;;;;16.92;5.03;;;;;;;;;;2075743;28;20052;-55
2023/10/11 06:18:06;;;;;;;14.52;5.13;;;;;;;;;;2075773;28;20046;-58
2023/10/11 06:19:16;;;;;;;17.38;4.97;;;;;;;;;;2076048;28;20040;-55
2023/10/11 06:20:23;;;;;;;15.43;4.90;;;;;;;;;;2075632;28;20041;-54
2023/10/11 06:21:30;;;;;;;16.58;5.55;;;;;;;;;;2075552;28;20044;-55
2023/10/11 06:22:33;;;;;;;19.80;5.53;;;;;;;;;;2075044;28;20053;-55
2023/10/11 06:23:38;;;;;;;12.38;4.93;;;;;;;;;;2074496;28;20057;-55
2023/10/11 06:24:38;;;;;;;14.65;4.47;;;;;;;;;;2075075;28;20041;-55
2023/10/11 06:25:53;;;;;;;11.93;4.45;;;;;;;;;;2074606;28;20070;-54
2023/10/11 06:26:54;;;;;;;14.75;4.68;;;;;;;;;;2073718;28;20053;-54
2023/10/11 06:29:07;;;;;;;18.50;5.10;;;;;;;;;;2074581;28;20052;-55
2023/10/11 06:30:09;;;;;;;11.07;4.22;;;;;;;;;;2074294;28;20054;-54
2023/10/11 06:31:14;;;;;;;14.77;4.82;;;;;;;;;;2074236;28;20049;-54
2023/10/11 06:32:18;;;;;;;13.88;5.30;;;;;;;;;;2074317;28;20497;-54
2023/10/11 06:33:21;;;;;;;15.35;4.18;;;;;;;;;;2074120;28;20050;-54
2023/10/11 06:35:25;;;;;;;23.63;5.78;;;;;;;;;;2074702;28;20034;-55
2023/10/11 06:36:29;;;;;;;20.52;5.57;;;;;;;;;;2074514;28;20045;-55
2023/10/11 06:37:34;;;;;;;18.92;5.00;;;;;;;;;;2074428;28;20053;-55
2023/10/11 06:38:41;;;;;;;17.15;5.70;;;;;;;;;;2074200;28;20041;-54
2023/10/11 06:41:36;;;;;;;20.63;5.75;;;;;;;;;;2074493;28;20046;-54
2023/10/11 06:43:16;;;;;;;15.45;5.18;;;;;;;;;;2073507;28;20402;-54
2023/10/11 06:44:18;;;;;;;17.60;5.20;;;;;;;;;;2074204;28;20042;-53
2023/10/11 06:45:20;;;;;;;13.48;4.75;;;;;;;;;;2074151;28;20045;-53
2023/10/11 06:46:21;;;;;;;15.65;4.63;;;;;;;;;;2074344;28;20040;-54
2023/10/11 06:47:21;;;;;;;19.40;5.13;;;;;;;;;;2074241;28;20352;-54
2023/10/11 06:48:25;;;;;;;14.85;5.05;;;;;;;;;;2074543;28;20038;-54
2023/10/11 06:49:27;;;;;;;21.55;5.50;;;;;;;;;;2074652;28;20041;-54
2023/10/11 06:50:28;;;;;;;17.15;4.35;;;;;;;;;;2074324;28;20033;-53
2023/10/11 06:51:28;;;;;;;14.77;4.70;;;;;;;;;;2074204;28;20501;-53